createdAt,value
2019-03-11T00:03:52.636Z,2.7
2019-03-11T00:09:21.024Z,2.8
2019-03-11T00:14:49.547Z,2.8
2019-03-11T00:20:17.905Z,2.8
2019-03-11T00:25:46.147Z,2.8
2019-03-11T00:31:13.531Z,2.8
2019-03-11T00:36:41.945Z,2.8
2019-03-11T00:42:10.355Z,2.8
2019-03-11T00:47:38.600Z,2.7
2019-03-11T00:53:05.999Z,2.7
2019-03-11T00:58:33.425Z,2.7
2019-03-11T01:04:01.735Z,2.7
2019-03-11T01:09:30.189Z,2.8
2019-03-11T01:14:57.453Z,2.9
2019-03-11T01:20:24.849Z,3
2019-03-11T01:25:52.247Z,3
2019-03-11T01:31:19.732Z,3
2019-03-11T01:36:47.045Z,3
2019-03-11T01:42:15.441Z,3
2019-03-11T01:47:43.836Z,3
2019-03-11T01:53:11.267Z,3
2019-03-11T01:58:39.578Z,3
2019-03-11T02:04:07.020Z,2.9
2019-03-11T02:09:34.337Z,2.9
2019-03-11T02:15:02.759Z,2.8
2019-03-11T02:20:31.103Z,2.7
2019-03-11T02:25:58.497Z,2.6
2019-03-11T02:31:26.797Z,2.6
2019-03-11T02:36:55.351Z,2.5
2019-03-11T02:42:22.552Z,2.5
2019-03-11T02:47:50.820Z,2.4
2019-03-11T02:53:18.255Z,2.4
2019-03-11T02:58:46.555Z,2.3
2019-03-11T03:04:13.868Z,2.3
2019-03-11T03:09:42.256Z,2.3
2019-03-11T03:15:10.557Z,2.3
2019-03-11T03:20:38.909Z,2.2
2019-03-11T03:26:07.274Z,2.2
2019-03-11T03:31:34.599Z,2.2
2019-03-11T03:37:02.838Z,2.2
2019-03-11T03:42:31.151Z,2.3
2019-03-11T03:47:58.475Z,2.3
2019-03-11T03:53:25.816Z,2.3
2019-03-11T03:58:54.263Z,2.3
2019-03-11T04:04:21.451Z,2.3
2019-03-11T04:09:49.804Z,2.3
2019-03-11T04:15:18.183Z,2.4
2019-03-11T04:20:45.445Z,2.4
2019-03-11T04:26:13.801Z,2.5
2019-03-11T04:31:42.115Z,2.5
2019-03-11T04:37:10.482Z,2.5
2019-03-11T04:42:38.837Z,2.5
2019-03-11T04:48:06.187Z,2.5
2019-03-11T04:53:33.455Z,2.5
2019-03-11T04:59:00.835Z,2.5
2019-03-11T05:04:29.252Z,2.5
2019-03-11T05:09:57.591Z,2.5
2019-03-11T05:15:25.865Z,2.5
2019-03-11T05:20:53.235Z,2.5
2019-03-11T05:26:21.549Z,2.5
2019-03-11T05:31:49.892Z,2.5
2019-03-11T05:37:17.247Z,2.5
2019-03-11T05:42:44.981Z,2.5
2019-03-11T05:48:11.961Z,2.5
2019-03-11T05:53:40.377Z,2.5
2019-03-11T05:59:07.667Z,2.5
2019-03-11T06:04:34.975Z,2.5
2019-03-11T06:10:03.334Z,2.5
2019-03-11T06:15:31.645Z,2.5
2019-03-11T06:20:59.997Z,2.5
2019-03-11T06:26:28.359Z,2.5
2019-03-11T06:31:55.752Z,2.5
2019-03-11T06:37:23.059Z,2.6
2019-03-11T06:42:51.382Z,2.6
2019-03-11T06:48:19.780Z,2.6
2019-03-11T06:53:48.103Z,2.6
2019-03-11T06:59:15.456Z,2.6
2019-03-11T07:04:42.827Z,2.7
2019-03-11T07:21:06.976Z,2.7
2019-03-11T07:26:35.491Z,2.7
2019-03-11T07:32:02.670Z,2.7
2019-03-11T07:37:30.024Z,2.7
2019-03-11T07:42:58.445Z,2.7
2019-03-11T07:48:26.782Z,2.8
2019-03-11T07:53:54.149Z,3
2019-03-11T07:59:21.541Z,3.2
2019-03-11T08:04:48.954Z,3.3
2019-03-11T08:10:16.481Z,3.4
2019-03-11T08:15:45.003Z,3.4
2019-03-11T08:21:12.191Z,3.4
2019-03-11T08:26:40.630Z,3.4
2019-03-11T08:32:09.101Z,3.3
2019-03-11T08:37:36.418Z,3.4
2019-03-11T08:43:03.840Z,3.5
2019-03-11T08:48:31.270Z,3.5
2019-03-11T08:53:58.670Z,3.5
2019-03-11T08:59:26.053Z,3.4
2019-03-11T09:04:54.591Z,3.2
2019-03-11T09:10:21.969Z,3.1
2019-03-11T09:15:49.309Z,3
2019-03-11T09:21:17.684Z,3
2019-03-11T09:26:46.099Z,3.1
2019-03-11T09:32:14.587Z,3.1
2019-03-11T09:37:41.867Z,3.2
2019-03-11T09:43:10.485Z,3.3
2019-03-11T09:48:38.712Z,3.4
2019-03-11T09:54:07.136Z,3.6
2019-03-11T09:59:35.548Z,3.7
2019-03-11T10:05:03.035Z,3.8
2019-03-11T10:10:30.595Z,4
2019-03-11T10:15:57.913Z,4.1
2019-03-11T10:21:26.445Z,4.2
2019-03-11T10:26:54.870Z,4.3
2019-03-11T10:32:22.318Z,4.4
2019-03-11T10:37:49.798Z,4.4
2019-03-11T10:43:17.307Z,4.5
2019-03-11T10:48:44.814Z,4.6
2019-03-11T10:54:12.260Z,4.7
2019-03-11T10:59:40.712Z,4.8
2019-03-11T11:05:09.645Z,4.9
2019-03-11T11:10:36.742Z,5
2019-03-11T11:16:04.324Z,5.2
2019-03-11T11:21:31.866Z,5.3
2019-03-11T11:27:00.411Z,5.4
2019-03-11T11:32:28.979Z,5.6
2019-03-11T11:37:56.933Z,5.8
2019-03-11T11:43:25.064Z,6
2019-03-11T11:48:52.705Z,6.2
2019-03-11T11:54:21.295Z,6.2
2019-03-11T11:59:53.860Z,6.2
2019-03-11T12:05:16.510Z,6.2
2019-03-11T12:10:45.099Z,6.3
2019-03-11T12:16:12.697Z,6.4
2019-03-11T12:21:40.367Z,6.6
2019-03-11T12:27:08.129Z,6.6
2019-03-11T12:32:36.635Z,6.4
2019-03-11T12:38:05.234Z,6.3
2019-03-11T12:43:32.799Z,6.2
2019-03-11T12:49:01.548Z,6.1
2019-03-11T12:54:29.026Z,6.1
2019-03-11T12:59:57.626Z,6.1
2019-03-11T13:05:25.225Z,6.2
2019-03-11T13:10:53.855Z,6.3
2019-03-11T13:16:22.447Z,6.2
2019-03-11T13:21:50.001Z,6
2019-03-11T13:27:17.737Z,5.8
2019-03-11T13:32:46.172Z,5.7
2019-03-11T13:38:14.811Z,5.7
2019-03-11T13:43:43.243Z,5.9
2019-03-11T13:49:10.837Z,6.1
2019-03-11T13:54:38.439Z,6.3
2019-03-11T14:00:06.109Z,6.4
2019-03-11T14:05:33.697Z,6.5
2019-03-11T14:11:02.429Z,6.5
2019-03-11T14:16:29.997Z,6.4
2019-03-11T14:21:57.554Z,6.4
2019-03-11T14:27:25.250Z,6.4
2019-03-11T14:32:53.813Z,6.4
2019-03-11T14:38:22.429Z,6.6
2019-03-11T14:43:50.101Z,6.7
2019-03-11T14:49:17.694Z,6.7
2019-03-11T14:54:46.641Z,6.7
2019-03-11T15:00:17.789Z,6.7
2019-03-11T15:05:42.674Z,6.7
2019-03-11T15:11:10.635Z,6.8
2019-03-11T15:16:37.963Z,6.7
2019-03-11T15:22:06.949Z,6.7
2019-03-11T15:27:34.182Z,6.6
2019-03-11T15:33:01.967Z,6.5
2019-03-11T15:38:30.495Z,6.5
2019-03-11T15:43:58.062Z,6.5
2019-03-11T15:49:26.719Z,6.4
2019-03-11T15:54:55.299Z,6.4
2019-03-11T16:00:22.997Z,6.4
2019-03-11T16:05:51.521Z,6.3
2019-03-11T16:11:20.288Z,6.3
2019-03-11T16:16:47.936Z,6.3
2019-03-11T16:22:23.133Z,6.2
2019-03-11T16:27:43.934Z,6.1
2019-03-11T16:33:12.498Z,6
2019-03-11T16:38:40.441Z,5.9
2019-03-11T16:44:07.987Z,5.8
2019-03-11T16:49:35.441Z,5.7
2019-03-11T16:55:03.852Z,5.7
2019-03-11T17:00:31.469Z,5.7
2019-03-11T17:05:59.986Z,5.7
2019-03-11T17:11:28.638Z,5.7
2019-03-11T17:16:56.065Z,5.6
2019-03-11T17:22:24.620Z,5.5
2019-03-11T17:27:53.218Z,5.4
2019-03-11T17:33:21.713Z,5.4
2019-03-11T17:38:49.221Z,5.3
2019-03-11T17:44:17.764Z,5.3
2019-03-11T17:49:45.447Z,5.2
2019-03-11T17:55:13.846Z,5.1
2019-03-11T18:00:41.368Z,5
2019-03-11T18:06:11.805Z,4.9
2019-03-11T18:11:39.887Z,4.7
2019-03-11T18:17:06.839Z,4.6
2019-03-11T18:22:35.319Z,4.6
2019-03-11T18:28:02.837Z,4.5
2019-03-11T18:33:31.448Z,4.4
2019-03-11T18:38:59.762Z,4.3
2019-03-11T18:44:27.371Z,4.2
2019-03-11T18:49:55.686Z,4.1
2019-03-11T18:55:24.135Z,4.1
2019-03-11T19:00:51.669Z,4
2019-03-11T19:06:19.140Z,3.9
2019-03-11T19:11:47.530Z,3.8
2019-03-11T19:17:15.984Z,3.7
2019-03-11T19:22:44.455Z,3.7
2019-03-11T19:28:12.904Z,3.6
2019-03-11T19:33:41.311Z,3.5
2019-03-11T19:39:08.687Z,3.5
2019-03-11T19:44:37.122Z,3.4
2019-03-11T19:50:07.067Z,3.3
2019-03-11T19:55:32.045Z,3.3
2019-03-11T20:01:00.236Z,3.2
2019-03-11T20:06:26.700Z,3.1
2019-03-11T20:11:54.289Z,3.1
2019-03-11T20:17:21.561Z,3
2019-03-11T20:22:49.904Z,2.9
2019-03-11T20:28:17.281Z,2.9
2019-03-11T20:33:45.581Z,2.8
2019-03-11T20:39:14.058Z,2.8
2019-03-11T20:44:41.422Z,2.8
2019-03-11T20:50:09.859Z,2.7
2019-03-11T20:55:37.200Z,2.7
2019-03-11T21:01:05.825Z,2.6
2019-03-11T21:06:33.794Z,2.6
2019-03-11T21:12:01.201Z,2.5
2019-03-11T21:17:29.553Z,2.4
2019-03-11T21:22:55.766Z,2.4
2019-03-11T21:28:23.392Z,2.3
2019-03-11T21:33:58.214Z,2.3
2019-03-11T21:39:17.835Z,2.2
2019-03-11T21:44:46.229Z,2.1
2019-03-11T21:50:13.413Z,2
2019-03-11T21:55:41.691Z,2
2019-03-11T22:01:11.154Z,2
2019-03-11T22:06:37.385Z,2
2019-03-11T22:12:04.676Z,2
2019-03-11T22:17:31.860Z,1.9
2019-03-11T22:23:00.314Z,1.9
2019-03-11T22:28:27.528Z,1.8
2019-03-11T22:33:54.727Z,1.7
2019-03-11T22:39:22.023Z,1.6
2019-03-11T22:44:50.327Z,1.6
2019-03-11T22:50:18.184Z,1.6
2019-03-11T22:55:44.831Z,1.6
2019-03-11T23:01:13.111Z,1.5
2019-03-11T23:06:41.586Z,1.5
2019-03-11T23:12:09.810Z,1.5
2019-03-11T23:17:37.295Z,1.4
2019-03-11T23:23:05.143Z,1.4
2019-03-11T23:28:33.418Z,1.4
2019-03-11T23:34:00.668Z,1.4
2019-03-11T23:39:27.989Z,1.3
2019-03-11T23:44:55.209Z,1.2
2019-03-11T23:50:22.528Z,1.2
2019-03-11T23:55:50.705Z,1.1
